sensor_id;sensor_type;location;lat;lon;timestamp;P1;durP1;ratioP1;P2;durP2;ratioP2
23680;SDS011;62915;50.832;4.462;2023-04-03T00:00:07;18.67;;;12.40;;
23680;SDS011;62915;50.832;4.462;2023-04-03T00:02:33;14.60;;;11.25;;
23680;SDS011;62915;50.832;4.462;2023-04-03T00:04:59;13.95;;;11.50;;
23680;SDS011;62915;50.832;4.462;2023-04-03T00:07:25;16.20;;;12.00;;
23680;SDS011;62915;50.832;4.462;2023-04-03T00:09:52;16.50;;;11.68;;
23680;SDS011;62915;50.832;4.462;2023-04-03T00:12:18;17.23;;;11.65;;
23680;SDS011;62915;50.832;4.462;2023-04-03T00:14:43;13.43;;;11.02;;
23680;SDS011;62915;50.832;4.462;2023-04-03T00:17:09;15.63;;;11.38;;
23680;SDS011;62915;50.832;4.462;2023-04-03T00:19:35;15.27;;;11.88;;
23680;SDS011;62915;50.832;4.462;2023-04-03T00:22:00;12.45;;;10.50;;
23680;SDS011;62915;50.832;4.462;2023-04-03T00:24:26;14.43;;;11.15;;
23680;SDS011;62915;50.832;4.462;2023-04-03T00:26:52;14.30;;;10.55;;
23680;SDS011;62915;50.832;4.462;2023-04-03T00:29:18;16.52;;;11.80;;
23680;SDS011;62915;50.832;4.462;2023-04-03T00:31:43;15.48;;;11.13;;
23680;SDS011;62915;50.832;4.462;2023-04-03T00:34:09;13.85;;;10.70;;
23680;SDS011;62915;50.832;4.462;2023-04-03T00:36:35;16.27;;;11.15;;
23680;SDS011;62915;50.832;4.462;2023-04-03T00:39:00;14.23;;;10.73;;
23680;SDS011;62915;50.832;4.462;2023-04-03T00:41:26;18.38;;;11.48;;
23680;SDS011;62915;50.832;4.462;2023-04-03T00:43:52;14.95;;;10.55;;
23680;SDS011;62915;50.832;4.462;2023-04-03T00:46:18;15.63;;;11.70;;
23680;SDS011;62915;50.832;4.462;2023-04-03T00:48:44;13.02;;;11.10;;
23680;SDS011;62915;50.832;4.462;2023-04-03T00:51:17;14.40;;;11.00;;
23680;SDS011;62915;50.832;4.462;2023-04-03T00:53:58;13.90;;;10.65;;
23680;SDS011;62915;50.832;4.462;2023-04-03T00:56:27;17.45;;;11.43;;
23680;SDS011;62915;50.832;4.462;2023-04-03T00:58:56;16.77;;;11.90;;
23680;SDS011;62915;50.832;4.462;2023-04-03T01:01:32;14.95;;;11.48;;
23680;SDS011;62915;50.832;4.462;2023-04-03T01:04:00;17.05;;;11.95;;
23680;SDS011;62915;50.832;4.462;2023-04-03T01:06:28;15.75;;;11.10;;
23680;SDS011;62915;50.832;4.462;2023-04-03T01:08:57;14.60;;;11.25;;
23680;SDS011;62915;50.832;4.462;2023-04-03T01:11:26;12.50;;;9.65;;
23680;SDS011;62915;50.832;4.462;2023-04-03T01:13:53;13.88;;;10.73;;
23680;SDS011;62915;50.832;4.462;2023-04-03T01:16:19;12.32;;;10.65;;
23680;SDS011;62915;50.832;4.462;2023-04-03T01:18:44;13.73;;;10.73;;
23680;SDS011;62915;50.832;4.462;2023-04-03T01:26:34;13.35;;;10.23;;
23680;SDS011;62915;50.832;4.462;2023-04-03T01:29:00;13.77;;;9.48;;
23680;SDS011;62915;50.832;4.462;2023-04-03T01:34:10;11.85;;;9.85;;
23680;SDS011;62915;50.832;4.462;2023-04-03T01:36:36;14.18;;;10.30;;
23680;SDS011;62915;50.832;4.462;2023-04-03T01:39:02;13.15;;;9.20;;
23680;SDS011;62915;50.832;4.462;2023-04-03T01:41:28;12.63;;;9.40;;
23680;SDS011;62915;50.832;4.462;2023-04-03T01:43:54;10.88;;;8.77;;
23680;SDS011;62915;50.832;4.462;2023-04-03T01:46:20;13.02;;;9.95;;
23680;SDS011;62915;50.832;4.462;2023-04-03T01:48:46;15.75;;;9.40;;
23680;SDS011;62915;50.832;4.462;2023-04-03T01:51:12;11.32;;;8.95;;
23680;SDS011;62915;50.832;4.462;2023-04-03T01:53:42;12.57;;;8.65;;
23680;SDS011;62915;50.832;4.462;2023-04-03T01:56:08;12.90;;;9.77;;
23680;SDS011;62915;50.832;4.462;2023-04-03T01:58:34;13.00;;;9.73;;
23680;SDS011;62915;50.832;4.462;2023-04-03T02:01:00;11.75;;;9.18;;
23680;SDS011;62915;50.832;4.462;2023-04-03T02:03:26;10.35;;;8.75;;
23680;SDS011;62915;50.832;4.462;2023-04-03T02:05:52;11.57;;;8.73;;
23680;SDS011;62915;50.832;4.462;2023-04-03T02:08:18;12.02;;;8.55;;
23680;SDS011;62915;50.832;4.462;2023-04-03T02:10:44;13.27;;;8.73;;
23680;SDS011;62915;50.832;4.462;2023-04-03T02:13:12;14.82;;;8.60;;
23680;SDS011;62915;50.832;4.462;2023-04-03T02:15:38;13.57;;;9.52;;
23680;SDS011;62915;50.832;4.462;2023-04-03T02:18:04;12.07;;;9.93;;
23680;SDS011;62915;50.832;4.462;2023-04-03T02:20:31;13.15;;;7.70;;
23680;SDS011;62915;50.832;4.462;2023-04-03T02:22:57;11.23;;;9.05;;
23680;SDS011;62915;50.832;4.462;2023-04-03T02:25:22;12.60;;;8.35;;
23680;SDS011;62915;50.832;4.462;2023-04-03T02:27:48;10.57;;;7.78;;
23680;SDS011;62915;50.832;4.462;2023-04-03T02:30:14;11.88;;;8.18;;
23680;SDS011;62915;50.832;4.462;2023-04-03T02:32:40;9.52;;;8.13;;
23680;SDS011;62915;50.832;4.462;2023-04-03T02:35:07;11.48;;;8.73;;
23680;SDS011;62915;50.832;4.462;2023-04-03T02:37:34;12.18;;;8.85;;
23680;SDS011;62915;50.832;4.462;2023-04-03T02:40:01;15.15;;;8.55;;
23680;SDS011;62915;50.832;4.462;2023-04-03T02:42:37;17.58;;;7.80;;
23680;SDS011;62915;50.832;4.462;2023-04-03T02:45:18;9.32;;;8.15;;
23680;SDS011;62915;50.832;4.462;2023-04-03T02:47:45;17.08;;;9.45;;
23680;SDS011;62915;50.832;4.462;2023-04-03T02:50:11;12.77;;;8.90;;
23680;SDS011;62915;50.832;4.462;2023-04-03T02:52:39;10.25;;;8.75;;
23680;SDS011;62915;50.832;4.462;2023-04-03T02:57:38;9.38;;;8.38;;
23680;SDS011;62915;50.832;4.462;2023-04-03T03:00:04;10.30;;;8.50;;
23680;SDS011;62915;50.832;4.462;2023-04-03T03:02:30;12.93;;;9.15;;
23680;SDS011;62915;50.832;4.462;2023-04-03T03:04:56;12.48;;;8.30;;
23680;SDS011;62915;50.832;4.462;2023-04-03T03:07:21;14.15;;;8.98;;
23680;SDS011;62915;50.832;4.462;2023-04-03T03:09:47;11.20;;;8.68;;
23680;SDS011;62915;50.832;4.462;2023-04-03T03:12:13;10.02;;;8.23;;
23680;SDS011;62915;50.832;4.462;2023-04-03T03:14:39;10.13;;;8.25;;
23680;SDS011;62915;50.832;4.462;2023-04-03T03:17:05;9.05;;;7.90;;
23680;SDS011;62915;50.832;4.462;2023-04-03T03:19:31;11.93;;;8.50;;
23680;SDS011;62915;50.832;4.462;2023-04-03T03:21:57;10.00;;;8.05;;
23680;SDS011;62915;50.832;4.462;2023-04-03T03:24:22;14.63;;;8.52;;
23680;SDS011;62915;50.832;4.462;2023-04-03T03:26:48;8.60;;;7.68;;
23680;SDS011;62915;50.832;4.462;2023-04-03T03:29:13;10.18;;;7.97;;
23680;SDS011;62915;50.832;4.462;2023-04-03T03:31:39;10.10;;;8.30;;
23680;SDS011;62915;50.832;4.462;2023-04-03T03:34:05;11.18;;;7.97;;
23680;SDS011;62915;50.832;4.462;2023-04-03T03:36:31;10.18;;;8.02;;
23680;SDS011;62915;50.832;4.462;2023-04-03T03:38:57;9.95;;;8.65;;
23680;SDS011;62915;50.832;4.462;2023-04-03T03:41:23;11.20;;;8.23;;
23680;SDS011;62915;50.832;4.462;2023-04-03T03:43:48;11.95;;;8.70;;
23680;SDS011;62915;50.832;4.462;2023-04-03T03:46:14;8.95;;;7.97;;
23680;SDS011;62915;50.832;4.462;2023-04-03T03:48:40;11.45;;;8.55;;
23680;SDS011;62915;50.832;4.462;2023-04-03T03:51:06;10.32;;;7.80;;
23680;SDS011;62915;50.832;4.462;2023-04-03T03:53:32;15.52;;;8.40;;
23680;SDS011;62915;50.832;4.462;2023-04-03T03:55:57;9.52;;;8.52;;
23680;SDS011;62915;50.832;4.462;2023-04-03T03:58:23;10.98;;;8.45;;
23680;SDS011;62915;50.832;4.462;2023-04-03T04:00:49;14.18;;;8.32;;
23680;SDS011;62915;50.832;4.462;2023-04-03T04:03:15;9.98;;;8.13;;
23680;SDS011;62915;50.832;4.462;2023-04-03T04:05:40;9.88;;;8.20;;
23680;SDS011;62915;50.832;4.462;2023-04-03T04:08:06;9.73;;;8.52;;
23680;SDS011;62915;50.832;4.462;2023-04-03T04:10:32;11.68;;;8.15;;
23680;SDS011;62915;50.832;4.462;2023-04-03T04:12:58;9.65;;;7.13;;
23680;SDS011;62915;50.832;4.462;2023-04-03T04:15:24;11.68;;;8.45;;
23680;SDS011;62915;50.832;4.462;2023-04-03T04:17:50;9.90;;;8.00;;
23680;SDS011;62915;50.832;4.462;2023-04-03T04:20:16;10.68;;;8.50;;
23680;SDS011;62915;50.832;4.462;2023-04-03T04:22:42;12.70;;;7.97;;
23680;SDS011;62915;50.832;4.462;2023-04-03T04:25:08;9.88;;;8.50;;
23680;SDS011;62915;50.832;4.462;2023-04-03T04:27:33;13.55;;;8.60;;
23680;SDS011;62915;50.832;4.462;2023-04-03T04:29:59;11.98;;;8.57;;
23680;SDS011;62915;50.832;4.462;2023-04-03T04:32:25;10.55;;;8.32;;
23680;SDS011;62915;50.832;4.462;2023-04-03T04:34:51;11.27;;;9.27;;
23680;SDS011;62915;50.832;4.462;2023-04-03T04:37:17;11.00;;;8.40;;
23680;SDS011;62915;50.832;4.462;2023-04-03T04:39:43;12.05;;;8.73;;
23680;SDS011;62915;50.832;4.462;2023-04-03T04:42:08;11.55;;;8.77;;
23680;SDS011;62915;50.832;4.462;2023-04-03T04:44:38;11.20;;;8.45;;
23680;SDS011;62915;50.832;4.462;2023-04-03T04:47:05;10.38;;;8.77;;
23680;SDS011;62915;50.832;4.462;2023-04-03T04:49:31;13.75;;;9.13;;
23680;SDS011;62915;50.832;4.462;2023-04-03T04:51:57;14.07;;;9.65;;
23680;SDS011;62915;50.832;4.462;2023-04-03T04:54:22;12.02;;;8.63;;
23680;SDS011;62915;50.832;4.462;2023-04-03T04:56:48;13.63;;;9.05;;
23680;SDS011;62915;50.832;4.462;2023-04-03T04:59:14;11.70;;;9.05;;
23680;SDS011;62915;50.832;4.462;2023-04-03T05:01:40;12.85;;;9.05;;
23680;SDS011;62915;50.832;4.462;2023-04-03T05:04:06;11.30;;;8.68;;
23680;SDS011;62915;50.832;4.462;2023-04-03T05:06:33;14.32;;;9.18;;
23680;SDS011;62915;50.832;4.462;2023-04-03T05:09:00;13.73;;;9.30;;
23680;SDS011;62915;50.832;4.462;2023-04-03T05:11:26;12.38;;;9.40;;
23680;SDS011;62915;50.832;4.462;2023-04-03T05:13:52;11.85;;;9.05;;
23680;SDS011;62915;50.832;4.462;2023-04-03T05:16:17;12.75;;;10.02;;
23680;SDS011;62915;50.832;4.462;2023-04-03T05:18:43;13.60;;;9.32;;
23680;SDS011;62915;50.832;4.462;2023-04-03T05:21:09;15.32;;;10.13;;
23680;SDS011;62915;50.832;4.462;2023-04-03T05:23:34;13.65;;;9.85;;
23680;SDS011;62915;50.832;4.462;2023-04-03T05:26:00;10.73;;;9.63;;
23680;SDS011;62915;50.832;4.462;2023-04-03T05:28:26;12.02;;;9.68;;
23680;SDS011;62915;50.832;4.462;2023-04-03T05:30:55;15.13;;;9.55;;
23680;SDS011;62915;50.832;4.462;2023-04-03T05:33:24;14.13;;;10.30;;
23680;SDS011;62915;50.832;4.462;2023-04-03T05:35:51;13.82;;;10.02;;
23680;SDS011;62915;50.832;4.462;2023-04-03T05:38:18;12.32;;;9.50;;
23680;SDS011;62915;50.832;4.462;2023-04-03T05:40:43;13.45;;;10.73;;
23680;SDS011;62915;50.832;4.462;2023-04-03T05:43:09;13.52;;;10.80;;
23680;SDS011;62915;50.832;4.462;2023-04-03T05:45:35;14.13;;;10.40;;
23680;SDS011;62915;50.832;4.462;2023-04-03T05:48:01;18.48;;;11.05;;
23680;SDS011;62915;50.832;4.462;2023-04-03T05:50:26;14.90;;;10.23;;
23680;SDS011;62915;50.832;4.462;2023-04-03T05:52:52;18.17;;;11.77;;
23680;SDS011;62915;50.832;4.462;2023-04-03T05:55:23;14.80;;;11.90;;
23680;SDS011;62915;50.832;4.462;2023-04-03T05:57:48;17.02;;;11.52;;
23680;SDS011;62915;50.832;4.462;2023-04-03T06:00:15;16.63;;;11.75;;
23680;SDS011;62915;50.832;4.462;2023-04-03T06:02:42;13.40;;;11.48;;
23680;SDS011;62915;50.832;4.462;2023-04-03T06:05:09;17.15;;;11.85;;
23680;SDS011;62915;50.832;4.462;2023-04-03T06:07:36;18.40;;;12.43;;
23680;SDS011;62915;50.832;4.462;2023-04-03T06:10:02;15.23;;;12.25;;
23680;SDS011;62915;50.832;4.462;2023-04-03T06:12:28;14.73;;;12.27;;
23680;SDS011;62915;50.832;4.462;2023-04-03T06:14:55;15.45;;;11.75;;
23680;SDS011;62915;50.832;4.462;2023-04-03T06:17:21;18.13;;;12.55;;
23680;SDS011;62915;50.832;4.462;2023-04-03T06:19:46;20.00;;;12.85;;
23680;SDS011;62915;50.832;4.462;2023-04-03T06:22:12;15.55;;;11.70;;
23680;SDS011;62915;50.832;4.462;2023-04-03T06:24:39;16.08;;;13.02;;
23680;SDS011;62915;50.832;4.462;2023-04-03T06:27:05;17.60;;;12.80;;
23680;SDS011;62915;50.832;4.462;2023-04-03T06:29:31;17.35;;;12.70;;
23680;SDS011;62915;50.832;4.462;2023-04-03T06:31:57;15.93;;;12.27;;
23680;SDS011;62915;50.832;4.462;2023-04-03T06:34:22;17.83;;;13.07;;
23680;SDS011;62915;50.832;4.462;2023-04-03T06:36:48;19.02;;;14.43;;
23680;SDS011;62915;50.832;4.462;2023-04-03T06:39:16;18.83;;;13.82;;
23680;SDS011;62915;50.832;4.462;2023-04-03T06:41:46;18.05;;;14.52;;
23680;SDS011;62915;50.832;4.462;2023-04-03T06:44:11;19.05;;;14.13;;
23680;SDS011;62915;50.832;4.462;2023-04-03T06:46:42;22.35;;;14.43;;
23680;SDS011;62915;50.832;4.462;2023-04-03T06:49:09;21.08;;;15.35;;
23680;SDS011;62915;50.832;4.462;2023-04-03T06:51:35;18.77;;;14.77;;
23680;SDS011;62915;50.832;4.462;2023-04-03T06:54:02;20.67;;;15.68;;
23680;SDS011;62915;50.832;4.462;2023-04-03T06:56:29;22.20;;;14.90;;
23680;SDS011;62915;50.832;4.462;2023-04-03T06:58:55;17.75;;;13.93;;
23680;SDS011;62915;50.832;4.462;2023-04-03T07:01:26;17.92;;;14.50;;
23680;SDS011;62915;50.832;4.462;2023-04-03T07:03:53;20.75;;;14.32;;
23680;SDS011;62915;50.832;4.462;2023-04-03T07:06:20;22.38;;;13.98;;
23680;SDS011;62915;50.832;4.462;2023-04-03T07:08:47;20.75;;;14.05;;
23680;SDS011;62915;50.832;4.462;2023-04-03T07:11:14;21.45;;;15.00;;
23680;SDS011;62915;50.832;4.462;2023-04-03T07:13:39;15.85;;;13.65;;
23680;SDS011;62915;50.832;4.462;2023-04-03T07:16:06;20.70;;;13.93;;
23680;SDS011;62915;50.832;4.462;2023-04-03T07:18:32;15.98;;;12.35;;
23680;SDS011;62915;50.832;4.462;2023-04-03T07:20:58;21.20;;;13.90;;
23680;SDS011;62915;50.832;4.462;2023-04-03T07:23:24;16.45;;;13.73;;
23680;SDS011;62915;50.832;4.462;2023-04-03T07:25:50;16.60;;;12.82;;
23680;SDS011;62915;50.832;4.462;2023-04-03T07:28:18;15.55;;;11.88;;
23680;SDS011;62915;50.832;4.462;2023-04-03T07:30:46;18.85;;;12.15;;
23680;SDS011;62915;50.832;4.462;2023-04-03T07:33:13;20.42;;;12.07;;
23680;SDS011;62915;50.832;4.462;2023-04-03T07:35:40;20.42;;;11.90;;
23680;SDS011;62915;50.832;4.462;2023-04-03T07:38:07;17.55;;;11.25;;
23680;SDS011;62915;50.832;4.462;2023-04-03T07:40:33;14.50;;;10.65;;
23680;SDS011;62915;50.832;4.462;2023-04-03T07:43:00;17.80;;;11.48;;
23680;SDS011;62915;50.832;4.462;2023-04-03T07:45:26;13.38;;;10.32;;
23680;SDS011;62915;50.832;4.462;2023-04-03T07:47:52;15.48;;;10.90;;
23680;SDS011;62915;50.832;4.462;2023-04-03T07:50:18;11.88;;;10.68;;
23680;SDS011;62915;50.832;4.462;2023-04-03T07:52:43;15.00;;;10.63;;
23680;SDS011;62915;50.832;4.462;2023-04-03T07:55:10;13.63;;;9.98;;
23680;SDS011;62915;50.832;4.462;2023-04-03T07:57:36;12.90;;;9.88;;
23680;SDS011;62915;50.832;4.462;2023-04-03T08:00:03;11.85;;;8.98;;
23680;SDS011;62915;50.832;4.462;2023-04-03T08:02:30;16.38;;;10.30;;
23680;SDS011;62915;50.832;4.462;2023-04-03T08:04:57;11.73;;;9.57;;
23680;SDS011;62915;50.832;4.462;2023-04-03T08:07:23;13.65;;;10.70;;
23680;SDS011;62915;50.832;4.462;2023-04-03T08:09:50;15.38;;;9.73;;
23680;SDS011;62915;50.832;4.462;2023-04-03T08:12:16;10.57;;;8.05;;
23680;SDS011;62915;50.832;4.462;2023-04-03T08:14:41;13.52;;;8.00;;
23680;SDS011;62915;50.832;4.462;2023-04-03T08:17:08;9.38;;;7.95;;
23680;SDS011;62915;50.832;4.462;2023-04-03T08:19:36;11.60;;;8.00;;
23680;SDS011;62915;50.832;4.462;2023-04-03T08:22:03;11.63;;;7.88;;
23680;SDS011;62915;50.832;4.462;2023-04-03T08:24:30;10.95;;;7.78;;
23680;SDS011;62915;50.832;4.462;2023-04-03T08:26:56;8.80;;;7.75;;
23680;SDS011;62915;50.832;4.462;2023-04-03T08:29:22;13.43;;;7.53;;
23680;SDS011;62915;50.832;4.462;2023-04-03T08:31:49;10.70;;;7.57;;
23680;SDS011;62915;50.832;4.462;2023-04-03T08:34:15;15.95;;;8.32;;
23680;SDS011;62915;50.832;4.462;2023-04-03T08:36:42;11.00;;;7.07;;
23680;SDS011;62915;50.832;4.462;2023-04-03T08:39:08;11.90;;;7.25;;
23680;SDS011;62915;50.832;4.462;2023-04-03T08:41:36;11.00;;;6.63;;
23680;SDS011;62915;50.832;4.462;2023-04-03T08:49:58;13.93;;;7.00;;
23680;SDS011;62915;50.832;4.462;2023-04-03T08:54:54;7.88;;;6.05;;
23680;SDS011;62915;50.832;4.462;2023-04-03T08:57:57;8.82;;;6.50;;
23680;SDS011;62915;50.832;4.462;2023-04-03T09:00:17;8.70;;;6.28;;
23680;SDS011;62915;50.832;4.462;2023-04-03T09:02:52;6.95;;;5.25;;
23680;SDS011;62915;50.832;4.462;2023-04-03T09:05:27;9.05;;;5.68;;
23680;SDS011;62915;50.832;4.462;2023-04-03T09:10:48;11.93;;;6.15;;
23680;SDS011;62915;50.832;4.462;2023-04-03T09:16:14;12.25;;;5.85;;
23680;SDS011;62915;50.832;4.462;2023-04-03T09:18:55;9.45;;;5.32;;
23680;SDS011;62915;50.832;4.462;2023-04-03T09:21:34;7.90;;;5.03;;
23680;SDS011;62915;50.832;4.462;2023-04-03T09:26:31;7.57;;;4.65;;
23680;SDS011;62915;50.832;4.462;2023-04-03T09:29:02;6.95;;;4.00;;
23680;SDS011;62915;50.832;4.462;2023-04-03T09:31:38;8.68;;;4.00;;
23680;SDS011;62915;50.832;4.462;2023-04-03T09:34:08;6.53;;;3.47;;
23680;SDS011;62915;50.832;4.462;2023-04-03T09:36:57;6.35;;;3.50;;
23680;SDS011;62915;50.832;4.462;2023-04-03T09:39:49;7.28;;;4.10;;
23680;SDS011;62915;50.832;4.462;2023-04-03T09:42:19;7.85;;;3.38;;
23680;SDS011;62915;50.832;4.462;2023-04-03T09:45:21;7.00;;;3.28;;
23680;SDS011;62915;50.832;4.462;2023-04-03T09:47:47;6.93;;;3.47;;
23680;SDS011;62915;50.832;4.462;2023-04-03T09:52:43;8.45;;;3.80;;
23680;SDS011;62915;50.832;4.462;2023-04-03T09:55:20;4.75;;;3.20;;
23680;SDS011;62915;50.832;4.462;2023-04-03T09:57:58;7.45;;;3.10;;
23680;SDS011;62915;50.832;4.462;2023-04-03T10:00:26;6.78;;;3.08;;
23680;SDS011;62915;50.832;4.462;2023-04-03T10:02:57;7.93;;;3.00;;
23680;SDS011;62915;50.832;4.462;2023-04-03T10:05:36;5.47;;;3.00;;
23680;SDS011;62915;50.832;4.462;2023-04-03T10:10:39;6.93;;;2.70;;
23680;SDS011;62915;50.832;4.462;2023-04-03T10:13:12;4.80;;;3.10;;
23680;SDS011;62915;50.832;4.462;2023-04-03T10:15:46;4.75;;;3.08;;
23680;SDS011;62915;50.832;4.462;2023-04-03T10:23:54;8.95;;;3.00;;
23680;SDS011;62915;50.832;4.462;2023-04-03T10:29:39;5.60;;;3.00;;
23680;SDS011;62915;50.832;4.462;2023-04-03T10:40:55;5.90;;;2.80;;
23680;SDS011;62915;50.832;4.462;2023-04-03T10:46:11;7.18;;;3.00;;
23680;SDS011;62915;50.832;4.462;2023-04-03T10:54:20;4.80;;;2.40;;
23680;SDS011;62915;50.832;4.462;2023-04-03T10:56:55;4.55;;;2.30;;
23680;SDS011;62915;50.832;4.462;2023-04-03T10:59:37;6.90;;;2.60;;
23680;SDS011;62915;50.832;4.462;2023-04-03T11:04:50;7.20;;;2.60;;
23680;SDS011;62915;50.832;4.462;2023-04-03T11:07:20;5.00;;;2.20;;
23680;SDS011;62915;50.832;4.462;2023-04-03T11:09:52;3.75;;;2.17;;
23680;SDS011;62915;50.832;4.462;2023-04-03T11:12:26;5.05;;;1.85;;
23680;SDS011;62915;50.832;4.462;2023-04-03T11:15:11;3.70;;;2.00;;
23680;SDS011;62915;50.832;4.462;2023-04-03T11:17:48;6.45;;;2.08;;
23680;SDS011;62915;50.832;4.462;2023-04-03T11:20:36;4.38;;;1.88;;
23680;SDS011;62915;50.832;4.462;2023-04-03T11:23:03;4.18;;;1.75;;
23680;SDS011;62915;50.832;4.462;2023-04-03T11:25:40;4.78;;;1.65;;
23680;SDS011;62915;50.832;4.462;2023-04-03T11:28:15;4.80;;;2.08;;
23680;SDS011;62915;50.832;4.462;2023-04-03T11:36:26;4.43;;;1.90;;
23680;SDS011;62915;50.832;4.462;2023-04-03T11:38:57;5.33;;;2.03;;
23680;SDS011;62915;50.832;4.462;2023-04-03T11:41:35;5.07;;;1.95;;
23680;SDS011;62915;50.832;4.462;2023-04-03T11:44:02;5.90;;;2.80;;
23680;SDS011;62915;50.832;4.462;2023-04-03T11:53:25;3.65;;;2.05;;
23680;SDS011;62915;50.832;4.462;2023-04-03T12:00:46;3.42;;;1.98;;
23680;SDS011;62915;50.832;4.462;2023-04-03T12:03:33;3.53;;;2.10;;
23680;SDS011;62915;50.832;4.462;2023-04-03T12:08:52;3.63;;;1.80;;
23680;SDS011;62915;50.832;4.462;2023-04-03T12:11:23;3.33;;;1.88;;
23680;SDS011;62915;50.832;4.462;2023-04-03T12:21:21;4.03;;;1.67;;
23680;SDS011;62915;50.832;4.462;2023-04-03T12:26:50;4.30;;;1.60;;
23680;SDS011;62915;50.832;4.462;2023-04-03T12:35:10;1.98;;;1.55;;
23680;SDS011;62915;50.832;4.462;2023-04-03T12:40:55;4.00;;;1.70;;
23680;SDS011;62915;50.832;4.462;2023-04-03T12:43:31;5.57;;;2.08;;
23680;SDS011;62915;50.832;4.462;2023-04-03T12:46:16;3.05;;;1.55;;
23680;SDS011;62915;50.832;4.462;2023-04-03T12:48:50;2.80;;;1.80;;
23680;SDS011;62915;50.832;4.462;2023-04-03T12:54:02;3.20;;;1.48;;
23680;SDS011;62915;50.832;4.462;2023-04-03T12:56:38;5.30;;;1.63;;
23680;SDS011;62915;50.832;4.462;2023-04-03T13:02:01;2.60;;;1.45;;
23680;SDS011;62915;50.832;4.462;2023-04-03T13:04:27;5.03;;;1.52;;
23680;SDS011;62915;50.832;4.462;2023-04-03T13:06:55;2.38;;;1.30;;
23680;SDS011;62915;50.832;4.462;2023-04-03T13:09:28;4.15;;;1.63;;
23680;SDS011;62915;50.832;4.462;2023-04-03T13:14:22;3.38;;;1.88;;
23680;SDS011;62915;50.832;4.462;2023-04-03T13:16:58;2.83;;;1.75;;
23680;SDS011;62915;50.832;4.462;2023-04-03T13:19:45;5.20;;;1.75;;
23680;SDS011;62915;50.832;4.462;2023-04-03T13:24:52;2.97;;;1.40;;
23680;SDS011;62915;50.832;4.462;2023-04-03T13:27:20;6.70;;;1.80;;
23680;SDS011;62915;50.832;4.462;2023-04-03T13:29:50;3.88;;;1.60;;
23680;SDS011;62915;50.832;4.462;2023-04-03T13:32:19;4.65;;;2.08;;
23680;SDS011;62915;50.832;4.462;2023-04-03T13:34:47;5.28;;;2.17;;
23680;SDS011;62915;50.832;4.462;2023-04-03T13:37:21;6.18;;;2.00;;
23680;SDS011;62915;50.832;4.462;2023-04-03T13:40:02;5.22;;;1.92;;
23680;SDS011;62915;50.832;4.462;2023-04-03T13:42:32;3.90;;;1.73;;
23680;SDS011;62915;50.832;4.462;2023-04-03T13:47:52;2.78;;;1.80;;
23680;SDS011;62915;50.832;4.462;2023-04-03T13:50:32;7.28;;;2.40;;
23680;SDS011;62915;50.832;4.462;2023-04-03T13:53:02;5.97;;;1.90;;
23680;SDS011;62915;50.832;4.462;2023-04-03T13:55:37;6.13;;;2.00;;
23680;SDS011;62915;50.832;4.462;2023-04-03T13:58:23;4.03;;;1.60;;
23680;SDS011;62915;50.832;4.462;2023-04-03T14:00:55;3.67;;;1.58;;
23680;SDS011;62915;50.832;4.462;2023-04-03T14:03:39;3.00;;;1.95;;
23680;SDS011;62915;50.832;4.462;2023-04-03T14:06:09;4.25;;;1.75;;
23680;SDS011;62915;50.832;4.462;2023-04-03T14:08:37;2.97;;;1.73;;
23680;SDS011;62915;50.832;4.462;2023-04-03T14:11:03;5.22;;;2.35;;
23680;SDS011;62915;50.832;4.462;2023-04-03T14:13:30;4.57;;;1.95;;
23680;SDS011;62915;50.832;4.462;2023-04-03T14:15:56;3.28;;;1.67;;
23680;SDS011;62915;50.832;4.462;2023-04-03T14:18:22;3.60;;;1.83;;
23680;SDS011;62915;50.832;4.462;2023-04-03T14:20:48;2.42;;;1.48;;
23680;SDS011;62915;50.832;4.462;2023-04-03T14:23:14;3.33;;;1.65;;
23680;SDS011;62915;50.832;4.462;2023-04-03T14:25:41;4.70;;;1.83;;
23680;SDS011;62915;50.832;4.462;2023-04-03T14:28:15;7.43;;;4.65;;
23680;SDS011;62915;50.832;4.462;2023-04-03T14:30:47;2.70;;;1.90;;
23680;SDS011;62915;50.832;4.462;2023-04-03T14:33:15;4.80;;;1.65;;
23680;SDS011;62915;50.832;4.462;2023-04-03T14:35:44;3.22;;;1.70;;
23680;SDS011;62915;50.832;4.462;2023-04-03T14:38:27;2.72;;;1.60;;
23680;SDS011;62915;50.832;4.462;2023-04-03T14:40:55;2.92;;;1.30;;
23680;SDS011;62915;50.832;4.462;2023-04-03T14:43:21;2.75;;;1.45;;
23680;SDS011;62915;50.832;4.462;2023-04-03T14:45:48;3.13;;;1.50;;
23680;SDS011;62915;50.832;4.462;2023-04-03T14:48:19;2.28;;;1.40;;
23680;SDS011;62915;50.832;4.462;2023-04-03T14:50:47;4.03;;;1.40;;
23680;SDS011;62915;50.832;4.462;2023-04-03T14:53:13;5.68;;;1.55;;
23680;SDS011;62915;50.832;4.462;2023-04-03T14:55:40;1.65;;;1.10;;
23680;SDS011;62915;50.832;4.462;2023-04-03T14:58:14;3.53;;;1.50;;
23680;SDS011;62915;50.832;4.462;2023-04-03T15:00:41;2.15;;;1.38;;
23680;SDS011;62915;50.832;4.462;2023-04-03T15:03:20;8.00;;;2.00;;
23680;SDS011;62915;50.832;4.462;2023-04-03T15:05:47;3.22;;;1.30;;
23680;SDS011;62915;50.832;4.462;2023-04-03T15:10:43;2.17;;;1.40;;
23680;SDS011;62915;50.832;4.462;2023-04-03T15:13:09;3.80;;;1.35;;
23680;SDS011;62915;50.832;4.462;2023-04-03T15:15:37;3.13;;;1.70;;
23680;SDS011;62915;50.832;4.462;2023-04-03T15:18:02;4.40;;;1.90;;
23680;SDS011;62915;50.832;4.462;2023-04-03T15:20:29;4.22;;;1.80;;
23680;SDS011;62915;50.832;4.462;2023-04-03T15:22:58;7.05;;;1.90;;
23680;SDS011;62915;50.832;4.462;2023-04-03T15:25:27;5.63;;;1.70;;
23680;SDS011;62915;50.832;4.462;2023-04-03T15:27:54;4.03;;;2.00;;
23680;SDS011;62915;50.832;4.462;2023-04-03T15:30:21;2.88;;;1.90;;
23680;SDS011;62915;50.832;4.462;2023-04-03T15:32:50;4.25;;;2.03;;
23680;SDS011;62915;50.832;4.462;2023-04-03T15:35:16;2.70;;;1.50;;
23680;SDS011;62915;50.832;4.462;2023-04-03T15:37:42;5.35;;;2.13;;
23680;SDS011;62915;50.832;4.462;2023-04-03T15:40:08;9.05;;;2.17;;
23680;SDS011;62915;50.832;4.462;2023-04-03T15:42:34;3.42;;;1.83;;
23680;SDS011;62915;50.832;4.462;2023-04-03T15:45:00;3.67;;;1.80;;
23680;SDS011;62915;50.832;4.462;2023-04-03T15:47:26;6.22;;;2.00;;
23680;SDS011;62915;50.832;4.462;2023-04-03T15:49:53;3.28;;;1.95;;
23680;SDS011;62915;50.832;4.462;2023-04-03T15:52:20;3.13;;;2.00;;
23680;SDS011;62915;50.832;4.462;2023-04-03T15:54:46;4.60;;;1.90;;
23680;SDS011;62915;50.832;4.462;2023-04-03T15:57:12;4.03;;;1.77;;
23680;SDS011;62915;50.832;4.462;2023-04-03T15:59:37;4.65;;;1.90;;
23680;SDS011;62915;50.832;4.462;2023-04-03T16:02:03;7.22;;;2.83;;
23680;SDS011;62915;50.832;4.462;2023-04-03T16:04:32;6.07;;;2.47;;
23680;SDS011;62915;50.832;4.462;2023-04-03T16:07:02;4.63;;;2.22;;
23680;SDS011;62915;50.832;4.462;2023-04-03T16:09:29;4.03;;;2.15;;
23680;SDS011;62915;50.832;4.462;2023-04-03T16:11:59;4.80;;;2.53;;
23680;SDS011;62915;50.832;4.462;2023-04-03T16:14:25;4.70;;;2.20;;
23680;SDS011;62915;50.832;4.462;2023-04-03T16:16:52;6.40;;;2.50;;
23680;SDS011;62915;50.832;4.462;2023-04-03T16:19:18;4.43;;;2.50;;
23680;SDS011;62915;50.832;4.462;2023-04-03T16:21:45;2.95;;;2.10;;
23680;SDS011;62915;50.832;4.462;2023-04-03T16:24:11;7.78;;;2.40;;
23680;SDS011;62915;50.832;4.462;2023-04-03T16:26:37;7.90;;;2.50;;
23680;SDS011;62915;50.832;4.462;2023-04-03T16:29:03;6.88;;;2.83;;
23680;SDS011;62915;50.832;4.462;2023-04-03T16:31:29;4.80;;;2.83;;
23680;SDS011;62915;50.832;4.462;2023-04-03T16:33:59;4.97;;;2.47;;
23680;SDS011;62915;50.832;4.462;2023-04-03T16:36:27;6.32;;;3.10;;
23680;SDS011;62915;50.832;4.462;2023-04-03T16:38:53;7.35;;;3.17;;